Enzo Miranda

Scout - Tigre
11 Mär 2027
Donnerstag
Verarbeitung

Persönlichkeit

Anpassungsfähigkeit (18) Ehrgeiz (1) Kontroverse (18) Loyalität (20) Druck (14) Professionalität (11) Fairness (14) Temperament (2)

Profil

Trainerstil Demokratisch
Lizenz Kontinentale C
Entschlossenheit 8
Menschenführung 4
Motivation 7
Disziplin 7
Arbeitszufriedenheit
95%
Ermüdung
0%
Rolle Scout
Gehalt 91.3K p/W
Vertrag 14.03.2028

Leistung

Verhalten Gut
Trainingseffektivität
42%
Spielerentwicklung
30%
Verletzungsprävention
25%
Taktische Umsetzung
30%

Letzte Ereignisse

Nahm an einer Scouting-Besprechung teil jetzt
Nahm an einer Scouting-Besprechung teil 7T her
Nahm an einer Scouting-Besprechung teil 7T her
Nahm an einer Scouting-Besprechung teil 7T her
Spieler begutachtet 7T her
Spieler begutachtet 7T her
Nahm an einer Scouting-Besprechung teil 14T her
Spieler begutachtet 14T her

Aktuell beobachtet

79
Spieler Verein Status Fähigkeit Vertrauen Beobachtet Zuletzt beobachtet Letzte Stimme
Sergio Carreira Celta Aktiv 148 / 149 40% 2 06.03.2027 -
Anderson Arroyo Rubin Aktiv 117 / 114 40% 1 06.03.2027 -
Christian Krasnodar Aktiv 155 / 144 40% 2 04.03.2027 -
Andrea Ciofi Cesena Aktiv 106 / 124 40% 2 04.03.2027 -
Dani Barcia Deportivo La Coruña Aktiv 103 / 107 40% 1 26.02.2027 -
Abel Bretones Osasuna Aktiv 149 / 136 40% 1 26.02.2027 -
Ramón Terrats Getafe Aktiv 149 / 134 40% 2 22.02.2027 -
Arsène Kouassi FC Lorient Aktiv 119 / 133 40% 1 22.02.2027 -
Miguel Atienza Leganés Aktiv 112 / 127 40% 1 21.02.2027 -
Zé Vitor Nacional Aktiv 108 / 127 40% 1 21.02.2027 -
Enrico Delprato Parma Aktiv 136 / 154 40% 1 20.02.2027 -
Tristan Crama Millwall Aktiv 122 / 108 40% 1 20.02.2027 -
Morten Frendrup Genoa Aktiv 161 / 151 40% 1 12.02.2027 -
Roberto Fernández Lokomotiv Moscow Aktiv 115 / 103 40% 1 12.02.2027 -
Ibrahim Maza Bayer Leverkusen Aktiv 127 / 138 40% 1 08.02.2027 -
Alexandr Chernikov Krasnodar Aktiv 140 / 133 40% 2 05.02.2027 -
Diego Costa Krasnodar Aktiv 158 / 127 40% 1 05.02.2027 -
Matvey Kislyak CSKA Moscow Aktiv 130 / 149 40% 1 04.02.2027 -
Mandla Erasmus SuperSport United Aktiv 134 / 110 40% 2 03.02.2027 -
Panos Katseris FC Lorient Aktiv 133 / 121 40% 1 03.02.2027 -
Joaquín García Vélez Aktiv 112 / 132 40% 2 01.02.2027 -
Tomás Ribeiro Cultural Leonesa Aktiv 107 / 133 40% 1 01.02.2027 -
Ihor Krasnopir Polissia Aktiv 113 / 133 40% 1 30.11.2026 -
Axel Pérez NK Domzale Aktiv 94 / 117 40% 1 30.11.2026 -
Álex Centelles Levski Aktiv 121 / 136 40% 1 28.11.2026 -
José Martínes CSKA 1948 Aktiv 112 / 102 40% 1 28.11.2026 -
Brayan León Mamelodi Sundowns Aktiv 113 / 113 40% 1 28.11.2026 -
Ruben van Bommel Ferencvaros Aktiv 115 / 132 40% 2 27.11.2026 -
Vyacheslav Grulev Nizhniy Novgorod Aktiv 108 / 121 40% 1 27.11.2026 -
Nicolás Cordero Aldosivi Aktiv 112 / 108 40% 2 25.11.2026 Mehr Infos nötig
Valentín Barco Chelsea Aktiv 159 / 145 40% 1 25.11.2026 -
Manfred Ugalde Spartak Moscow Aktiv 152 / 121 40% 2 23.11.2026 -
Nathan-Dylan Saliba Villarreal Aktiv 129 / 109 40% 2 23.11.2026 -
Elias Hoff Melkersen Stromsgodset Aktiv 94 / 100 40% 1 23.11.2026 -
Aidomo Emakhu Oxford United Aktiv 127 / 133 40% 1 20.11.2026 -
Felipe Augusto Zenit Aktiv 135 / 127 40% 1 19.11.2026 -
Joel Orlando Almagro Aktiv 114 / 111 40% 1 19.11.2026 -
Kévin Denkey FC Cincinnati Aktiv 132 / 122 40% 1 18.11.2026 -
Seedy Jatta Sturm Graz Aktiv 116 / 113 40% 1 18.11.2026 -
Eric Meza Estudiantes Aktiv 116 / 117 40% 1 16.11.2026 -
Antonino Gallo Lecce Aktiv 144 / 122 40% 2 15.11.2026 -
Nicolás Fernández Mercau Shakhtar Aktiv 144 / 143 40% 1 15.11.2026 -
Damián Fernández Defensa y Justicia Aktiv 140 / 129 40% 2 14.11.2026 -
Agustín Módica Gimnasia y Esgrima Aktiv 117 / 119 40% 2 14.11.2026 -
Mustapha Sangaré Levski Aktiv 107 / 121 40% 1 14.11.2026 -
Pablo Rodríguez Lech Aktiv 103 / 110 40% 1 12.11.2026 -
Bojan Radulović Huddersfield Town Aktiv 114 / 119 40% 1 09.11.2026 -
Alassana Jatta Notts County Aktiv 98 / 104 40% 1 09.11.2026 -
Daniel Karlsbakk Sarpsborg 08 Aktiv 144 / 127 40% 2 07.11.2026 -
Gonzalo Plata Dinamo Moscow Aktiv 118 / 120 40% 1 07.11.2026 -
Job Ochieng Real Sociedad Aktiv 106 / 88 40% 3 05.11.2026 -
Bénie Traoré New York City Aktiv 122 / 123 40% 2 05.11.2026 -
Lukáš Červ Viktoria Plzen Aktiv 138 / 143 40% 2 04.11.2026 -
Razvan Balasa Crvena Zvezda Aktiv 156 / 141 40% 1 02.11.2026 Mehr Infos nötig
Alexei Dominguez Pachuca Aktiv 90 / 97 40% 1 30.10.2026 -
Matías Galarza Talleres Aktiv 124 / 124 40% 3 29.10.2026 -
Brayan Gil Baltika Aktiv 132 / 104 40% 1 29.10.2026 -
Leandro Lozano Boca Juniors Aktiv 131 / 124 40% 1 28.10.2026 -
Omar Faraj Halmstad Aktiv 101 / 115 40% 1 25.10.2026 -
Conrad Wallem Austria Wien Aktiv 116 / 143 40% 1 20.10.2026 -
Jherson Mosquera Newell's Old Boys Aktiv 116 / 112 40% 1 20.10.2026 -
Facundo Miño Deportivo Riestra Aktiv 130 / 129 40% 1 19.10.2026 -
Santiago Núñez Estudiantes Aktiv 139 / 113 40% 1 17.10.2026 -
Bryan Ramírez FC Cincinnati Aktiv 150 / 116 40% 1 17.10.2026 -
Erison Kawasaki Frontale Aktiv 145 / 134 40% 1 16.10.2026 -
Álvaro Mantilla Racing Santander Aktiv 126 / 135 40% 1 11.10.2026 -
Kimito Nono Sanfrecce Hiroshima Aktiv 125 / 140 40% 1 08.10.2026 -
Augusto Schott Talleres Aktiv 132 / 123 40% 1 08.10.2026 -
Alexander Díaz Deportivo Riestra Aktiv 108 / 109 40% 1 06.10.2026 -
Sead Hakšabanović Malmo FF Aktiv 134 / 107 40% 1 06.10.2026 -
Patrick Yazbek Nashville SC Aktiv 142 / 104 40% 1 06.10.2026 -
Facundo Mura Inter Miami CF Aktiv 145 / 124 40% 1 06.10.2026 -
Pedro Vite Pumas UNAM Aktiv 139 / 119 40% 1 12.09.2026 -
Víctor Guzmán Monterrey Aktiv 132 / 131 40% 2 10.09.2026 -
Jermein Peña Junior Aktiv 136 / 122 40% 1 10.09.2026 -
Kevin Álvarez Club America Aktiv 131 / 139 40% 1 07.09.2026 -
Nahuel Leivas Montevideo City Torque Aktiv 99 / 121 40% 1 04.08.2026 -
Manuel Rios La Equidad Aktiv 97 / 110 40% 1 02.08.2026 -
James Trafford Leeds United Aktiv 126 / 144 40% 1 02.08.2026 -